Terminal Aerodrome Forecast
Issued by NWS

Home | Current Version | Previous Version | Text Only | Print | Product List | Glossary On
Versions: 1 2 3 4 5 6 7 8 9 10 11 12 13 14 15
000
FTUS41 KBTV 051120
TAFMPV
TAF
KMPV 051120Z 0512/0612 VRB03KT 3SM BR SCT001 BKN080
      TEMPO 0512/0513 1/2SM FG VV001
     FM051300 30007KT P6SM SCT050
     FM060000 VRB03KT P6SM SKC
     FM060500 00000KT 4SM BR SKC
     FM060800 00000KT 1/2SM FG VV001=

USA.gov is the U.S. government's official web portal to all federal, state and local government web resources and services.